createdAt,value
2022-08-31T00:00:41.957Z,52.39
2022-08-31T00:01:42.230Z,52.39
2022-08-31T00:02:42.499Z,52.39
2022-08-31T00:03:42.739Z,52.39
2022-08-31T00:04:43.033Z,52.39
2022-08-31T00:05:43.287Z,52.39
2022-08-31T00:06:43.527Z,52.49
2022-08-31T00:07:43.767Z,52.39
2022-08-31T00:08:44.051Z,52.49
2022-08-31T00:09:44.300Z,52.39
2022-08-31T00:10:45.087Z,52.49
2022-08-31T00:11:44.860Z,52.49
2022-08-31T00:12:45.089Z,52.49
2022-08-31T00:13:45.331Z,52.49
2022-08-31T00:14:45.583Z,52.49
2022-08-31T00:15:45.823Z,52.49
2022-08-31T00:16:46.220Z,52.49
2022-08-31T00:17:46.338Z,52.51
2022-08-31T00:18:46.614Z,52.49
2022-08-31T00:19:46.863Z,52.49
2022-08-31T00:20:47.101Z,52.49
2022-08-31T00:21:47.336Z,52.51
2022-08-31T00:22:47.625Z,52.49
2022-08-31T00:23:47.875Z,52.49
2022-08-31T00:24:48.116Z,52.51
2022-08-31T00:25:48.355Z,52.49
2022-08-31T00:26:48.605Z,52.51
2022-08-31T00:27:48.847Z,52.51
2022-08-31T00:28:49.087Z,52.61
2022-08-31T00:29:49.337Z,52.61
2022-08-31T00:30:49.579Z,52.61
2022-08-31T00:31:49.858Z,52.61
2022-08-31T00:32:50.107Z,52.61
2022-08-31T00:33:50.360Z,52.61
2022-08-31T00:34:50.608Z,52.61
2022-08-31T00:35:50.848Z,52.61
2022-08-31T00:36:51.089Z,52.61
2022-08-31T00:37:51.338Z,52.61
2022-08-31T00:38:51.579Z,52.61
2022-08-31T00:39:51.831Z,52.61
2022-08-31T00:40:52.104Z,52.61
2022-08-31T00:41:52.350Z,52.61
2022-08-31T00:42:52.590Z,52.61
2022-08-31T00:43:52.843Z,52.61
2022-08-31T00:44:53.081Z,52.61
2022-08-31T00:45:53.364Z,52.61
2022-08-31T00:46:53.592Z,52.61
2022-08-31T00:47:53.832Z,52.61
2022-08-31T00:48:54.073Z,52.61
2022-08-31T00:49:54.323Z,52.61
2022-08-31T00:50:54.563Z,52.61
2022-08-31T00:51:54.863Z,52.61
2022-08-31T00:52:55.104Z,52.61
2022-08-31T00:53:55.346Z,52.61
2022-08-31T00:54:55.594Z,52.61
2022-08-31T00:55:55.855Z,52.72
2022-08-31T00:56:56.098Z,52.72
2022-08-31T00:57:56.336Z,52.61
2022-08-31T00:58:56.603Z,52.72
2022-08-31T00:59:56.867Z,52.72
2022-08-31T01:00:57.174Z,52.72
2022-08-31T01:01:57.569Z,52.72
2022-08-31T01:02:57.805Z,52.72
2022-08-31T01:03:58.018Z,52.72
2022-08-31T01:04:58.259Z,52.72
2022-08-31T01:05:58.501Z,52.72
2022-08-31T01:06:58.739Z,52.72
2022-08-31T01:07:58.989Z,52.72
2022-08-31T01:08:59.231Z,52.72
2022-08-31T01:09:59.479Z,52.72
2022-08-31T01:10:59.790Z,52.72
2022-08-31T01:12:00.035Z,52.72
2022-08-31T01:13:00.273Z,52.72
2022-08-31T01:14:00.501Z,52.72
2022-08-31T01:15:00.742Z,52.72
2022-08-31T01:16:01.019Z,52.72
2022-08-31T01:17:01.272Z,52.72
2022-08-31T01:18:01.512Z,52.72
2022-08-31T01:19:01.753Z,52.72
2022-08-31T01:20:02.003Z,52.72
2022-08-31T01:21:02.244Z,52.72
2022-08-31T01:22:02.494Z,52.72
2022-08-31T01:23:02.735Z,52.72
2022-08-31T01:24:02.974Z,52.72
2022-08-31T01:25:03.236Z,52.72
2022-08-31T01:26:03.496Z,52.72
2022-08-31T01:27:03.746Z,52.72
2022-08-31T01:28:03.986Z,52.72
2022-08-31T01:29:04.227Z,52.72
2022-08-31T01:30:04.475Z,52.72
2022-08-31T01:31:04.715Z,52.72
2022-08-31T01:32:05.000Z,52.72
2022-08-31T01:33:05.241Z,52.81
2022-08-31T01:34:05.479Z,52.72
2022-08-31T01:35:05.719Z,52.81
2022-08-31T01:36:05.960Z,52.72
2022-08-31T01:37:06.200Z,52.81
2022-08-31T01:38:06.440Z,52.81
2022-08-31T01:39:06.681Z,52.81
2022-08-31T01:40:07.037Z,52.81
2022-08-31T01:41:07.251Z,52.81
2022-08-31T01:42:07.501Z,52.81
2022-08-31T01:43:07.740Z,52.81
2022-08-31T01:44:07.982Z,52.81
2022-08-31T01:45:08.222Z,52.81
2022-08-31T01:46:09.051Z,52.81
2022-08-31T01:47:08.840Z,52.81
2022-08-31T01:48:09.073Z,52.81
2022-08-31T01:49:09.314Z,52.81
2022-08-31T01:50:09.554Z,52.81
2022-08-31T01:51:12.312Z,52.81
2022-08-31T01:52:10.105Z,52.81
2022-08-31T01:53:10.347Z,52.81
2022-08-31T01:54:10.587Z,52.81
2022-08-31T01:55:10.838Z,52.81
2022-08-31T01:56:11.077Z,52.81
2022-08-31T01:57:11.316Z,52.81
2022-08-31T01:58:11.597Z,52.81
2022-08-31T01:59:11.839Z,52.81
2022-08-31T02:00:12.139Z,52.81
2022-08-31T02:01:31.274Z,52.81
2022-08-31T02:02:13.637Z,52.81
2022-08-31T02:03:12.929Z,52.81
2022-08-31T02:04:13.169Z,52.81
2022-08-31T02:05:13.411Z,52.81
2022-08-31T02:06:13.664Z,52.81
2022-08-31T02:07:13.907Z,52.81
2022-08-31T02:08:14.150Z,52.81
2022-08-31T02:09:14.403Z,52.81
2022-08-31T02:10:14.662Z,52.81
2022-08-31T02:11:14.911Z,52.81
2022-08-31T02:12:15.156Z,52.81
2022-08-31T02:13:15.392Z,52.91
2022-08-31T02:14:15.638Z,52.81
2022-08-31T02:15:15.883Z,52.81
2022-08-31T02:16:16.185Z,52.81
2022-08-31T02:17:16.436Z,52.81
2022-08-31T02:18:16.675Z,52.91
2022-08-31T02:19:16.924Z,52.91
2022-08-31T02:20:17.165Z,52.91
2022-08-31T02:21:17.417Z,52.91
2022-08-31T02:22:17.655Z,52.91
2022-08-31T02:23:18.061Z,52.91
2022-08-31T02:24:18.187Z,52.91
2022-08-31T02:25:18.427Z,52.91
2022-08-31T02:26:18.667Z,52.91
2022-08-31T02:27:18.967Z,52.91
2022-08-31T02:28:19.207Z,52.91
2022-08-31T02:29:19.449Z,52.91
2022-08-31T02:30:19.711Z,52.91
2022-08-31T02:31:19.982Z,52.91
2022-08-31T02:32:20.385Z,52.91
2022-08-31T02:33:20.558Z,52.91
2022-08-31T02:34:20.799Z,52.91
2022-08-31T02:35:21.040Z,52.91
2022-08-31T02:36:21.294Z,52.91
2022-08-31T02:37:21.542Z,52.91
2022-08-31T02:38:21.852Z,52.91
2022-08-31T02:39:22.161Z,52.91
2022-08-31T02:40:22.458Z,52.91
2022-08-31T02:41:22.651Z,52.91
2022-08-31T02:42:22.889Z,52.91
2022-08-31T02:43:24.402Z,52.91
2022-08-31T02:44:23.384Z,52.91
2022-08-31T02:45:23.633Z,52.91
2022-08-31T02:46:23.973Z,52.91
2022-08-31T02:47:24.174Z,52.91
2022-08-31T02:48:24.415Z,52.91
2022-08-31T02:49:24.655Z,52.91
2022-08-31T02:50:24.905Z,52.91
2022-08-31T02:51:25.165Z,52.91
2022-08-31T02:52:25.415Z,52.91
2022-08-31T02:53:25.654Z,52.91
2022-08-31T02:54:25.886Z,52.91
2022-08-31T02:55:26.139Z,52.91
2022-08-31T02:56:26.382Z,52.91
2022-08-31T02:57:26.617Z,53.01
2022-08-31T02:58:26.858Z,53.01
2022-08-31T02:59:27.101Z,53.01
2022-08-31T03:00:27.338Z,53.01
2022-08-31T03:01:27.622Z,53.01
2022-08-31T03:02:32.090Z,53.01
2022-08-31T03:03:28.113Z,53.01
2022-08-31T03:04:28.350Z,53.01
2022-08-31T03:05:28.590Z,53.01
2022-08-31T03:06:28.830Z,53.01
2022-08-31T03:07:29.071Z,53.01
2022-08-31T03:08:29.591Z,53.01
2022-08-31T03:09:29.553Z,53.01
2022-08-31T03:10:29.802Z,53.01
2022-08-31T03:11:30.045Z,53.01
2022-08-31T03:12:30.276Z,53.01
2022-08-31T03:13:30.523Z,53.01
2022-08-31T03:14:30.761Z,53.01
2022-08-31T03:15:31.053Z,53.01
2022-08-31T03:16:31.284Z,53.01
2022-08-31T03:17:31.528Z,53.01
2022-08-31T03:18:31.765Z,53.01
2022-08-31T03:19:32.007Z,53.04
2022-08-31T03:20:32.256Z,53.01
2022-08-31T03:21:32.565Z,53.01
2022-08-31T03:22:32.806Z,53.01
2022-08-31T03:23:33.046Z,53.01
2022-08-31T03:24:33.288Z,53.01
2022-08-31T03:25:33.527Z,53.01
2022-08-31T03:26:33.767Z,53.01
2022-08-31T03:27:34.014Z,53.01
2022-08-31T03:28:34.248Z,53.01
2022-08-31T03:29:34.488Z,53.01
2022-08-31T03:30:34.741Z,53.01
2022-08-31T03:31:35.053Z,53.01
2022-08-31T03:32:35.271Z,53.04
2022-08-31T03:33:35.510Z,53.14
2022-08-31T03:34:35.750Z,53.11
2022-08-31T03:35:35.999Z,53.01
2022-08-31T03:36:36.231Z,53.11
2022-08-31T03:37:36.481Z,53.14
2022-08-31T03:38:36.723Z,53.11
2022-08-31T03:39:36.962Z,53.14
2022-08-31T03:40:37.250Z,53.14
2022-08-31T03:41:37.503Z,53.11
2022-08-31T03:42:37.744Z,53.14
2022-08-31T03:43:37.983Z,53.14
2022-08-31T03:44:38.223Z,53.14
2022-08-31T03:45:38.465Z,53.14
2022-08-31T03:46:38.749Z,53.14
2022-08-31T03:47:44.934Z,53.14
2022-08-31T03:48:40.235Z,53.14
2022-08-31T03:49:39.539Z,53.14
2022-08-31T03:50:39.782Z,53.14
2022-08-31T03:51:40.026Z,53.14
2022-08-31T03:52:40.267Z,53.14
2022-08-31T03:53:40.527Z,53.14
2022-08-31T03:54:40.768Z,53.14
2022-08-31T03:55:41.010Z,53.14
2022-08-31T03:56:41.247Z,53.14
2022-08-31T03:57:41.489Z,53.14
2022-08-31T03:58:41.729Z,53.14
2022-08-31T03:59:41.970Z,53.14
2022-08-31T04:00:42.210Z,53.14
2022-08-31T04:01:42.513Z,53.14
2022-08-31T04:02:42.858Z,53.14
2022-08-31T04:03:43.051Z,53.14
2022-08-31T04:04:43.290Z,53.14
2022-08-31T04:05:43.531Z,53.14
2022-08-31T04:06:43.771Z,53.14
2022-08-31T04:07:44.013Z,53.14
2022-08-31T04:08:44.292Z,53.23
2022-08-31T04:09:44.532Z,53.14
2022-08-31T04:10:44.783Z,53.14
2022-08-31T04:11:45.816Z,53.14
2022-08-31T04:12:45.315Z,53.23
2022-08-31T04:13:45.554Z,53.14
2022-08-31T04:14:45.795Z,53.23
2022-08-31T04:15:46.073Z,53.23
2022-08-31T04:16:46.305Z,53.14
2022-08-31T04:17:46.573Z,53.14
2022-08-31T04:18:46.796Z,53.23
2022-08-31T04:19:47.052Z,53.14
2022-08-31T04:20:47.286Z,53.23
2022-08-31T04:21:47.529Z,53.14
2022-08-31T04:22:47.767Z,53.14
2022-08-31T04:23:48.007Z,53.23
2022-08-31T04:24:48.255Z,53.23
2022-08-31T04:25:48.499Z,53.23
2022-08-31T04:26:48.741Z,53.23
2022-08-31T04:27:48.979Z,53.23
2022-08-31T04:28:49.240Z,53.23
2022-08-31T04:29:49.487Z,53.23
2022-08-31T04:30:49.781Z,53.23
2022-08-31T04:31:50.031Z,53.23
2022-08-31T04:32:50.268Z,53.23
2022-08-31T04:33:50.520Z,53.23
2022-08-31T04:34:55.072Z,53.23
2022-08-31T04:35:51.992Z,53.23
2022-08-31T04:36:51.291Z,53.23
2022-08-31T04:37:51.532Z,53.23
2022-08-31T04:38:51.852Z,53.23
2022-08-31T04:39:52.400Z,53.23
2022-08-31T04:40:52.566Z,53.23
2022-08-31T04:41:52.630Z,53.23
2022-08-31T04:42:52.895Z,53.23
2022-08-31T04:43:53.136Z,53.23
2022-08-31T04:44:53.376Z,53.23
2022-08-31T04:51:18.726Z,53.23
2022-08-31T04:52:28.327Z,53.23
2022-08-31T04:53:19.448Z,53.23
2022-08-31T04:54:19.584Z,53.23
2022-08-31T04:55:19.824Z,53.23
2022-08-31T04:56:20.054Z,53.23
2022-08-31T04:57:20.285Z,53.23
2022-08-31T04:58:20.525Z,53.23
2022-08-31T04:59:20.758Z,53.23
2022-08-31T05:00:20.996Z,53.33
2022-08-31T05:01:21.279Z,53.33
2022-08-31T05:02:21.597Z,53.23
2022-08-31T05:03:21.807Z,53.23
2022-08-31T05:04:22.047Z,53.23
2022-08-31T05:05:22.287Z,53.23
2022-08-31T05:06:22.531Z,53.23
2022-08-31T05:07:22.768Z,53.23
2022-08-31T05:08:23.006Z,53.14
2022-08-31T05:09:23.238Z,53.23
2022-08-31T05:10:23.478Z,53.04
2022-08-31T05:11:25.118Z,53.04
2022-08-31T05:12:24.089Z,53.04
2022-08-31T05:13:24.331Z,53.04
2022-08-31T05:14:24.570Z,52.94
2022-08-31T05:15:24.801Z,52.94
2022-08-31T05:16:25.094Z,52.94
2022-08-31T05:17:25.319Z,52.94
2022-08-31T05:18:25.552Z,52.94
2022-08-31T05:19:25.791Z,52.94
2022-08-31T05:20:26.032Z,52.94
2022-08-31T05:21:26.272Z,53.04
2022-08-31T05:22:26.512Z,53.04
2022-08-31T05:23:26.743Z,53.04
2022-08-31T05:24:26.980Z,53.14
2022-08-31T05:25:27.251Z,53.14
2022-08-31T05:26:27.484Z,53.14
2022-08-31T05:27:27.715Z,53.16
2022-08-31T05:28:27.955Z,53.16
2022-08-31T05:29:28.185Z,53.16
2022-08-31T05:30:28.437Z,53.16
2022-08-31T05:31:28.713Z,53.26
2022-08-31T05:32:28.977Z,53.26
2022-08-31T05:33:29.207Z,53.26
2022-08-31T05:34:29.484Z,53.26
2022-08-31T05:35:29.729Z,53.36
2022-08-31T05:36:29.960Z,53.36
2022-08-31T05:37:30.187Z,53.46
2022-08-31T05:38:30.427Z,53.46
2022-08-31T05:39:30.658Z,53.46
2022-08-31T05:40:30.990Z,53.46
2022-08-31T05:41:31.208Z,53.46
2022-08-31T05:42:31.451Z,53.46
2022-08-31T05:43:31.702Z,53.46
2022-08-31T05:44:31.949Z,53.56
2022-08-31T05:45:32.180Z,53.56
2022-08-31T05:46:32.487Z,53.56
2022-08-31T05:47:32.720Z,53.56
2022-08-31T05:48:32.968Z,53.66
2022-08-31T05:49:33.291Z,53.66
2022-08-31T05:50:33.532Z,53.76
2022-08-31T05:51:38.376Z,53.76
2022-08-31T05:52:35.154Z,53.76
2022-08-31T05:53:34.452Z,53.88
2022-08-31T05:54:34.723Z,53.88
2022-08-31T05:55:34.954Z,53.88
2022-08-31T05:56:35.202Z,53.98
2022-08-31T05:57:35.434Z,53.98
2022-08-31T05:58:35.692Z,53.98
2022-08-31T05:59:35.925Z,53.98
2022-08-31T06:00:36.183Z,54.08
2022-08-31T06:01:36.471Z,53.98
2022-08-31T06:02:36.724Z,54.08
2022-08-31T06:03:36.963Z,54.18
2022-08-31T06:04:37.197Z,54.18
2022-08-31T06:05:37.543Z,54.18
2022-08-31T06:06:37.737Z,54.18
2022-08-31T06:07:37.970Z,54.28
2022-08-31T06:08:38.208Z,54.28
2022-08-31T06:09:38.448Z,54.38
2022-08-31T06:10:38.698Z,54.38
2022-08-31T06:11:38.939Z,54.48
2022-08-31T06:12:39.188Z,54.48
2022-08-31T06:13:39.419Z,54.68
2022-08-31T06:14:40.858Z,54.68
2022-08-31T06:15:42.375Z,54.78
2022-08-31T06:16:40.213Z,54.78
2022-08-31T06:17:40.480Z,54.88
2022-08-31T06:18:40.758Z,54.88
2022-08-31T06:19:40.991Z,54.97
2022-08-31T06:20:41.300Z,54.97
2022-08-31T06:21:49.769Z,55.08
2022-08-31T06:22:42.781Z,55.18
2022-08-31T06:23:42.072Z,55.18
2022-08-31T06:24:42.313Z,55.27
2022-08-31T06:25:42.553Z,55.38
2022-08-31T06:26:42.814Z,55.38
2022-08-31T06:27:43.054Z,55.47
2022-08-31T06:28:43.284Z,55.47
2022-08-31T06:29:43.524Z,55.47
2022-08-31T06:30:55.044Z,55.57
2022-08-31T06:31:45.035Z,55.57
2022-08-31T06:32:44.225Z,55.67
2022-08-31T06:33:44.467Z,55.67
2022-08-31T06:34:44.726Z,55.77
2022-08-31T06:35:44.976Z,55.87
2022-08-31T06:36:45.223Z,55.87
2022-08-31T06:37:45.467Z,55.97
2022-08-31T06:38:45.707Z,56.00
2022-08-31T06:39:45.937Z,56.00
2022-08-31T06:40:46.284Z,56.10
2022-08-31T06:41:46.498Z,56.10
2022-08-31T06:42:46.776Z,56.20
2022-08-31T06:43:47.009Z,56.20
2022-08-31T06:44:47.240Z,56.20
2022-08-31T06:45:47.515Z,56.30
2022-08-31T06:46:47.819Z,56.30
2022-08-31T06:47:48.030Z,56.40
2022-08-31T06:48:48.273Z,56.40
2022-08-31T06:49:48.508Z,56.40
2022-08-31T06:50:48.750Z,56.49
2022-08-31T06:51:48.982Z,56.49
2022-08-31T06:52:49.221Z,56.49
2022-08-31T06:53:49.452Z,56.49
2022-08-31T06:54:49.693Z,56.59
2022-08-31T06:55:49.971Z,56.59
2022-08-31T06:56:50.205Z,56.59
2022-08-31T06:57:50.442Z,56.59
2022-08-31T06:58:53.733Z,56.70
2022-08-31T06:59:50.933Z,56.70
2022-08-31T07:00:51.231Z,56.70
2022-08-31T07:01:51.562Z,56.70
2022-08-31T07:02:57.374Z,56.70
2022-08-31T07:03:52.874Z,56.79
2022-08-31T07:04:52.167Z,56.70
2022-08-31T07:05:52.415Z,56.70
2022-08-31T07:06:52.648Z,56.79
2022-08-31T07:07:52.885Z,56.70
2022-08-31T07:08:53.117Z,56.70
2022-08-31T07:09:53.389Z,56.70
2022-08-31T07:10:53.617Z,56.79
2022-08-31T07:11:53.859Z,56.79
2022-08-31T07:12:54.089Z,56.79
2022-08-31T07:13:54.327Z,56.89
2022-08-31T07:14:55.244Z,56.89
2022-08-31T07:15:54.920Z,56.89
2022-08-31T07:16:55.149Z,56.89
2022-08-31T07:17:55.394Z,56.79
2022-08-31T07:18:55.628Z,56.89
2022-08-31T07:19:55.860Z,56.89
2022-08-31T07:20:56.101Z,56.99
2022-08-31T07:21:56.351Z,56.99
2022-08-31T07:22:56.591Z,56.99
2022-08-31T07:23:56.831Z,57.09
2022-08-31T07:24:57.070Z,57.09
2022-08-31T07:25:57.313Z,57.09
2022-08-31T07:26:57.543Z,57.19
2022-08-31T07:27:57.791Z,57.19
2022-08-31T07:28:58.575Z,57.19
2022-08-31T07:29:58.362Z,57.19
2022-08-31T07:30:58.648Z,57.19
2022-08-31T07:31:58.884Z,57.19
2022-08-31T07:32:59.124Z,57.19
2022-08-31T07:33:59.364Z,57.29
2022-08-31T07:35:00.967Z,57.29
2022-08-31T07:35:59.935Z,57.29
2022-08-31T07:37:00.174Z,57.29
2022-08-31T07:38:00.536Z,57.39
2022-08-31T07:39:00.726Z,57.39
2022-08-31T07:40:06.203Z,57.39
2022-08-31T07:41:02.219Z,57.39
2022-08-31T07:42:01.475Z,57.39
2022-08-31T07:43:01.707Z,57.39
2022-08-31T07:44:02.018Z,57.39
2022-08-31T07:45:02.297Z,57.39
2022-08-31T07:46:02.598Z,57.39
2022-08-31T07:47:02.768Z,57.39
2022-08-31T07:48:03.072Z,57.39
2022-08-31T07:49:03.311Z,57.42
2022-08-31T07:50:03.550Z,57.42
2022-08-31T07:51:03.790Z,57.49
2022-08-31T07:52:04.043Z,57.52
2022-08-31T07:53:04.281Z,57.62
2022-08-31T07:54:04.520Z,57.52
2022-08-31T07:55:04.809Z,57.62
2022-08-31T07:56:05.053Z,57.62
2022-08-31T07:57:05.292Z,57.62
2022-08-31T07:58:05.533Z,57.62
2022-08-31T07:59:05.773Z,57.62
2022-08-31T08:00:06.013Z,57.59
2022-08-31T08:01:06.253Z,57.62
2022-08-31T08:02:06.655Z,57.62
2022-08-31T08:03:06.929Z,57.62
2022-08-31T08:04:07.084Z,57.62
2022-08-31T08:05:07.326Z,57.62
2022-08-31T08:06:07.616Z,57.62
2022-08-31T08:07:07.855Z,57.62
2022-08-31T08:08:13.551Z,57.62
2022-08-31T08:09:25.472Z,57.62
2022-08-31T08:10:09.596Z,57.71
2022-08-31T08:11:08.867Z,57.71
2022-08-31T08:12:09.106Z,57.71
2022-08-31T08:13:09.411Z,57.82
2022-08-31T08:14:09.656Z,57.82
2022-08-31T08:15:09.888Z,57.82
2022-08-31T08:16:10.210Z,57.82
2022-08-31T08:17:10.430Z,57.92
2022-08-31T08:18:10.673Z,57.92
2022-08-31T08:19:10.909Z,57.82
2022-08-31T08:20:13.806Z,57.92
2022-08-31T08:21:11.500Z,57.92
2022-08-31T08:22:11.740Z,57.92
2022-08-31T08:23:13.551Z,57.92
2022-08-31T08:24:12.262Z,57.82
2022-08-31T08:25:12.518Z,57.82
2022-08-31T08:26:21.129Z,57.82
2022-08-31T08:27:13.992Z,57.82
2022-08-31T08:28:36.051Z,57.82
2022-08-31T08:29:14.532Z,57.92
2022-08-31T08:30:13.836Z,57.92
2022-08-31T08:31:14.106Z,57.92
2022-08-31T08:32:17.522Z,57.82
2022-08-31T08:33:14.662Z,57.82
2022-08-31T08:34:14.904Z,57.82
2022-08-31T08:35:15.154Z,57.71
2022-08-31T08:36:15.394Z,57.71
2022-08-31T08:37:15.675Z,57.82
2022-08-31T08:38:15.924Z,57.71
2022-08-31T08:39:16.166Z,57.82
2022-08-31T08:40:16.499Z,57.71
2022-08-31T08:41:16.708Z,57.82
2022-08-31T08:42:16.947Z,57.82
2022-08-31T08:43:17.315Z,57.82
2022-08-31T08:44:18.137Z,57.71
2022-08-31T08:45:17.717Z,57.71
2022-08-31T08:46:34.010Z,57.62
2022-08-31T08:47:20.818Z,57.62
2022-08-31T08:48:18.519Z,57.52
2022-08-31T08:49:18.770Z,57.52
2022-08-31T08:50:19.009Z,57.62
2022-08-31T08:51:19.250Z,57.52
2022-08-31T08:52:19.501Z,57.52
2022-08-31T08:53:19.965Z,57.52
2022-08-31T08:54:20.088Z,57.52
2022-08-31T08:55:20.321Z,57.52
2022-08-31T08:56:32.743Z,57.52
2022-08-31T08:57:21.811Z,57.62
2022-08-31T08:58:21.120Z,57.62
2022-08-31T08:59:21.352Z,57.62
2022-08-31T09:00:21.633Z,57.62
2022-08-31T09:01:21.927Z,57.62
2022-08-31T09:02:22.189Z,57.62
2022-08-31T09:03:22.443Z,57.62
2022-08-31T09:04:22.685Z,57.71
2022-08-31T09:05:22.924Z,57.71
2022-08-31T09:06:23.174Z,57.71
2022-08-31T09:07:23.415Z,57.71
2022-08-31T09:08:23.658Z,57.82
2022-08-31T09:09:23.895Z,57.82
2022-08-31T09:10:24.137Z,57.82
2022-08-31T09:11:24.376Z,57.82
2022-08-31T09:12:24.627Z,57.82
2022-08-31T09:13:24.867Z,57.92
2022-08-31T09:14:25.117Z,57.92
2022-08-31T09:15:25.358Z,57.92
2022-08-31T09:16:25.624Z,57.89
2022-08-31T09:17:25.858Z,57.92
2022-08-31T09:18:26.110Z,57.89
2022-08-31T09:19:26.337Z,57.89
2022-08-31T09:20:26.580Z,57.99
2022-08-31T09:21:26.819Z,57.99
2022-08-31T09:22:27.068Z,57.99
2022-08-31T09:23:27.310Z,57.99
2022-08-31T09:24:27.596Z,57.99
2022-08-31T09:25:27.821Z,58.01
2022-08-31T09:26:28.070Z,58.01
2022-08-31T09:27:28.303Z,58.01
2022-08-31T09:28:28.543Z,57.99
2022-08-31T09:29:28.782Z,58.01
2022-08-31T09:30:29.023Z,57.99
2022-08-31T09:31:29.296Z,57.99
2022-08-31T09:32:29.523Z,58.01
2022-08-31T09:33:29.766Z,58.01
2022-08-31T09:34:30.024Z,57.92
2022-08-31T09:35:30.325Z,57.92
2022-08-31T09:36:30.577Z,57.92
2022-08-31T09:37:30.846Z,57.82
2022-08-31T09:38:31.085Z,57.82
2022-08-31T09:39:31.326Z,57.82
2022-08-31T09:40:32.597Z,57.82
2022-08-31T09:41:31.897Z,57.82
2022-08-31T09:42:33.823Z,57.71
2022-08-31T09:43:32.427Z,57.71
2022-08-31T09:44:32.708Z,57.71
2022-08-31T09:45:32.995Z,57.62
2022-08-31T09:46:33.220Z,57.62
2022-08-31T09:47:33.478Z,57.62
2022-08-31T09:48:33.733Z,57.52
2022-08-31T09:49:33.989Z,57.52
2022-08-31T09:50:35.586Z,57.42
2022-08-31T09:51:34.499Z,57.42
2022-08-31T09:52:34.750Z,57.32
2022-08-31T09:53:35.001Z,57.32
2022-08-31T09:54:35.260Z,57.32
2022-08-31T09:55:35.504Z,57.22
2022-08-31T09:56:35.750Z,57.22
2022-08-31T09:57:35.992Z,57.12
2022-08-31T09:58:36.232Z,57.12
2022-08-31T09:59:36.472Z,57.12
2022-08-31T10:00:36.722Z,57.02
2022-08-31T10:01:37.033Z,57.02
2022-08-31T10:02:37.273Z,57.02
2022-08-31T10:03:37.524Z,56.92
2022-08-31T10:04:37.809Z,56.92
2022-08-31T10:05:38.064Z,56.92
2022-08-31T10:06:38.316Z,56.92
2022-08-31T10:07:39.547Z,56.92
2022-08-31T10:08:38.845Z,56.92
2022-08-31T10:09:39.096Z,56.92
2022-08-31T10:10:39.317Z,56.92
2022-08-31T10:11:39.556Z,56.92
2022-08-31T10:12:39.849Z,56.92
2022-08-31T10:13:40.086Z,57.02
2022-08-31T10:14:40.347Z,56.92
2022-08-31T10:15:40.628Z,56.92
2022-08-31T10:16:40.878Z,56.92
2022-08-31T10:17:41.118Z,56.92
2022-08-31T10:18:41.358Z,56.82
2022-08-31T10:19:41.639Z,56.82
2022-08-31T10:20:41.887Z,56.82
2022-08-31T10:21:42.130Z,56.82
2022-08-31T10:22:42.388Z,56.82
2022-08-31T10:23:42.639Z,56.82
2022-08-31T10:24:42.902Z,56.82
2022-08-31T10:25:43.143Z,56.82
2022-08-31T10:26:43.451Z,56.82
2022-08-31T10:27:43.692Z,56.82
2022-08-31T10:28:43.934Z,56.82
2022-08-31T10:29:44.175Z,56.82
2022-08-31T10:30:44.466Z,56.82
2022-08-31T10:31:44.720Z,56.82
2022-08-31T10:32:44.961Z,56.82
2022-08-31T10:33:45.203Z,56.92
2022-08-31T10:34:45.443Z,56.92
2022-08-31T10:35:45.682Z,56.92
2022-08-31T10:36:45.934Z,56.92
2022-08-31T10:37:46.174Z,56.92
2022-08-31T10:38:46.423Z,56.92
2022-08-31T10:39:46.655Z,56.92
2022-08-31T10:40:46.934Z,56.92
2022-08-31T10:41:47.206Z,57.02
2022-08-31T10:42:47.447Z,57.02
2022-08-31T10:43:47.694Z,57.02
2022-08-31T10:44:50.091Z,57.02
2022-08-31T10:45:48.243Z,57.02
2022-08-31T10:46:48.518Z,57.02
2022-08-31T10:47:48.759Z,57.12
2022-08-31T10:48:48.998Z,57.12
2022-08-31T10:49:49.248Z,57.02
2022-08-31T10:50:49.479Z,57.02
2022-08-31T10:51:49.727Z,57.02
2022-08-31T10:52:49.979Z,57.12
2022-08-31T10:53:50.223Z,57.12
2022-08-31T10:54:50.460Z,57.22
2022-08-31T10:55:50.833Z,57.12
2022-08-31T10:56:51.065Z,57.12
2022-08-31T10:57:51.301Z,57.12
2022-08-31T10:58:51.542Z,57.22
2022-08-31T10:59:55.825Z,57.22
2022-08-31T11:00:52.063Z,57.22
2022-08-31T11:01:52.369Z,57.22
2022-08-31T11:02:52.595Z,57.22
2022-08-31T11:03:52.835Z,57.22
2022-08-31T11:04:53.143Z,57.12
2022-08-31T11:05:53.353Z,57.22
2022-08-31T11:06:53.604Z,57.22
2022-08-31T11:07:53.845Z,57.22
2022-08-31T11:08:54.109Z,57.22
2022-08-31T11:09:54.343Z,57.22
2022-08-31T11:10:54.593Z,57.22
2022-08-31T11:11:54.836Z,57.12
2022-08-31T11:12:55.197Z,57.22
2022-08-31T11:13:55.306Z,57.12
2022-08-31T11:14:55.549Z,57.12
2022-08-31T11:15:55.816Z,57.12
2022-08-31T11:16:56.077Z,57.12
2022-08-31T11:17:56.319Z,57.12
2022-08-31T11:18:56.560Z,57.12
2022-08-31T11:19:56.798Z,57.12
2022-08-31T11:20:57.042Z,57.12
2022-08-31T11:21:57.321Z,57.12
2022-08-31T11:22:57.559Z,57.12
2022-08-31T11:23:57.811Z,57.12
2022-08-31T11:24:58.048Z,57.12
2022-08-31T11:25:58.293Z,57.12
2022-08-31T11:26:58.532Z,57.12
2022-08-31T11:27:58.772Z,57.12
2022-08-31T11:28:59.011Z,57.12
2022-08-31T11:29:59.251Z,57.22
2022-08-31T11:30:59.552Z,57.22
2022-08-31T11:31:59.751Z,57.22
2022-08-31T11:33:00.045Z,57.22
2022-08-31T11:34:15.465Z,57.22
2022-08-31T11:35:01.553Z,57.22
2022-08-31T11:36:06.166Z,57.32
2022-08-31T11:37:02.094Z,57.32
2022-08-31T11:38:01.402Z,57.22
2022-08-31T11:39:01.654Z,57.22
2022-08-31T11:40:01.919Z,57.22
2022-08-31T11:41:02.174Z,57.12
2022-08-31T11:42:03.746Z,57.12
2022-08-31T11:43:02.686Z,57.12
2022-08-31T11:44:02.946Z,57.12
2022-08-31T11:45:03.196Z,57.12
2022-08-31T11:46:03.527Z,57.12
2022-08-31T11:47:05.930Z,57.22
2022-08-31T11:48:04.126Z,57.22
2022-08-31T11:49:04.376Z,57.12
2022-08-31T11:50:04.629Z,57.12
2022-08-31T11:51:04.948Z,57.12
2022-08-31T11:52:05.326Z,57.22
2022-08-31T11:53:05.530Z,57.22
2022-08-31T11:54:05.790Z,57.24
2022-08-31T11:55:06.046Z,57.22
2022-08-31T11:56:06.290Z,57.22
2022-08-31T11:57:07.140Z,57.22
2022-08-31T11:58:06.818Z,57.22
2022-08-31T11:59:07.061Z,57.35
2022-08-31T12:00:07.361Z,57.32
2022-08-31T12:01:07.612Z,57.35
2022-08-31T12:02:07.910Z,57.35
2022-08-31T12:03:08.153Z,57.35
2022-08-31T12:04:08.412Z,57.45
2022-08-31T12:05:08.673Z,57.35
2022-08-31T12:06:08.904Z,57.45
2022-08-31T12:07:09.173Z,57.35
2022-08-31T12:08:09.424Z,57.35
2022-08-31T12:09:09.674Z,57.35
2022-08-31T12:10:09.936Z,57.45
2022-08-31T12:11:10.185Z,57.45
2022-08-31T12:12:12.756Z,57.45
2022-08-31T12:13:10.706Z,57.45
2022-08-31T12:14:10.987Z,57.45
2022-08-31T12:15:11.237Z,57.45
2022-08-31T12:16:11.604Z,57.45
2022-08-31T12:17:11.717Z,57.45
2022-08-31T12:18:11.975Z,57.45
2022-08-31T12:19:12.225Z,57.45
2022-08-31T12:20:12.478Z,57.45
2022-08-31T12:21:12.746Z,57.45
2022-08-31T12:22:12.999Z,57.45
2022-08-31T12:23:15.315Z,57.45
2022-08-31T12:24:18.829Z,57.45
2022-08-31T12:25:13.820Z,57.45
2022-08-31T12:26:14.077Z,57.42
2022-08-31T12:27:14.331Z,57.45
2022-08-31T12:28:14.602Z,57.45
2022-08-31T12:29:14.854Z,57.42
2022-08-31T12:30:15.102Z,57.45
2022-08-31T12:31:15.397Z,57.45
2022-08-31T12:32:15.671Z,57.42
2022-08-31T12:33:15.922Z,57.42
2022-08-31T12:34:16.173Z,57.42
2022-08-31T12:35:16.434Z,57.45
2022-08-31T12:36:16.692Z,57.54
2022-08-31T12:37:16.954Z,57.52
2022-08-31T12:38:17.227Z,57.52
2022-08-31T12:39:17.484Z,57.52
2022-08-31T12:40:17.841Z,57.52
2022-08-31T12:41:21.140Z,57.54
2022-08-31T12:42:20.754Z,57.64
2022-08-31T12:43:18.755Z,57.62
2022-08-31T12:44:18.916Z,57.62
2022-08-31T12:45:19.177Z,57.71
2022-08-31T12:46:19.479Z,57.71
2022-08-31T12:47:23.942Z,57.71
2022-08-31T12:48:20.108Z,57.82
2022-08-31T12:49:20.358Z,57.82
2022-08-31T12:50:20.614Z,57.92
2022-08-31T12:51:20.866Z,57.92
2022-08-31T12:52:21.118Z,57.92
2022-08-31T12:53:21.378Z,57.92
2022-08-31T12:54:21.638Z,58.01
2022-08-31T12:55:21.889Z,58.01
2022-08-31T12:56:22.149Z,58.11
2022-08-31T12:57:26.838Z,58.11
2022-08-31T12:58:22.670Z,58.11
2022-08-31T12:59:22.931Z,58.11
2022-08-31T13:00:23.193Z,58.22
2022-08-31T13:01:23.588Z,58.22